createdAt,value
2023-02-08T00:00:34.834Z,445.6
2023-02-08T00:01:37.066Z,445.8
2023-02-08T00:02:39.882Z,446
2023-02-08T00:03:42.358Z,446
2023-02-08T00:04:44.579Z,446.1
2023-02-08T00:05:47.138Z,446.3
2023-02-08T00:06:49.694Z,446.3
2023-02-08T00:07:51.958Z,446.2
2023-02-08T00:08:54.688Z,446.6
2023-02-08T00:09:57.177Z,446.8
2023-02-08T00:10:59.668Z,446.5
2023-02-08T00:12:02.175Z,446.5
2023-02-08T00:13:04.466Z,446.5
2023-02-08T00:14:06.725Z,446.3
2023-02-08T00:15:09.242Z,446.3
2023-02-08T00:16:12.025Z,445.7
2023-02-08T00:17:14.534Z,446.2
2023-02-08T00:18:17.041Z,446.3
2023-02-08T00:19:19.267Z,446.2
2023-02-08T00:20:21.485Z,446.4
2023-02-08T00:21:23.722Z,446.1
2023-02-08T00:22:25.969Z,446.2
2023-02-08T00:23:28.239Z,446.2
2023-02-08T00:24:30.742Z,446
2023-02-08T00:25:33.249Z,446.5
2023-02-08T00:26:35.481Z,446.4
2023-02-08T00:27:37.717Z,446.4
2023-02-08T00:28:39.960Z,446.8
2023-02-08T00:29:42.226Z,446.5
2023-02-08T00:30:45.899Z,446.7
2023-02-08T00:31:48.746Z,446.8
2023-02-08T00:32:51.268Z,446.8
2023-02-08T00:33:53.558Z,447.2
2023-02-08T00:34:56.071Z,447.1
2023-02-08T00:35:58.026Z,447.6
2023-02-08T00:36:59.745Z,447.4
2023-02-08T00:38:02.312Z,447.9
2023-02-08T00:39:04.876Z,448.4
2023-02-08T00:40:07.231Z,448.2
2023-02-08T00:41:09.452Z,448.4
2023-02-08T00:42:11.943Z,448.5
2023-02-08T00:43:14.423Z,448.5
2023-02-08T00:44:16.932Z,448
2023-02-08T00:45:19.452Z,448.2
2023-02-08T00:46:22.187Z,448.3
2023-02-08T00:47:24.440Z,448.5
2023-02-08T00:48:26.962Z,448.8
2023-02-08T00:49:29.465Z,448.7
2023-02-08T00:50:31.999Z,448.1
2023-02-08T00:51:34.494Z,448.7
2023-02-08T00:52:36.982Z,448.8
2023-02-08T00:53:38.978Z,448.7
2023-02-08T00:54:41.508Z,448.5
2023-02-08T00:55:43.994Z,448.8
2023-02-08T00:56:46.478Z,448.2
2023-02-08T00:57:49.005Z,448.1
2023-02-08T00:58:51.230Z,448.5
2023-02-08T00:59:53.494Z,448.7
2023-02-08T01:00:56.199Z,448.7
2023-02-08T01:01:58.448Z,448.7
2023-02-08T01:03:00.696Z,448.7
2023-02-08T01:04:03.210Z,448.5
2023-02-08T01:05:05.733Z,448.6
2023-02-08T01:06:07.956Z,448.4
2023-02-08T01:07:10.178Z,448.6
2023-02-08T01:08:12.659Z,448.6
2023-02-08T01:09:15.194Z,448.4
2023-02-08T01:10:17.178Z,448.5
2023-02-08T01:11:19.412Z,448.4
2023-02-08T01:12:21.924Z,448.3
2023-02-08T01:13:23.860Z,448.7
2023-02-08T01:14:26.101Z,448.9
2023-02-08T01:15:28.344Z,448.8
2023-02-08T01:16:31.229Z,449
2023-02-08T01:17:33.525Z,448.7
2023-02-08T01:18:35.774Z,449.1
2023-02-08T01:19:38.275Z,448.8
2023-02-08T01:20:42.409Z,449
2023-02-08T01:21:44.421Z,448.5
2023-02-08T01:22:46.908Z,449.1
2023-02-08T01:23:49.439Z,448.7
2023-02-08T01:24:51.968Z,449.2
2023-02-08T01:25:54.503Z,448.8
2023-02-08T01:26:56.713Z,448.9
2023-02-08T01:27:59.270Z,449.1
2023-02-08T01:29:01.532Z,449.2
2023-02-08T01:30:04.026Z,449.4
2023-02-08T01:31:06.700Z,449.2
2023-02-08T01:32:09.236Z,449.6
2023-02-08T01:33:10.874Z,449.9
2023-02-08T01:34:13.396Z,449.4
2023-02-08T01:35:15.613Z,449.3
2023-02-08T01:36:18.154Z,449.4
2023-02-08T01:37:20.568Z,449.6
2023-02-08T01:38:22.498Z,449.9
2023-02-08T01:39:24.989Z,450
2023-02-08T01:40:27.532Z,449.7
2023-02-08T01:41:30.185Z,449.4
2023-02-08T01:42:32.408Z,449.7
2023-02-08T01:43:34.077Z,449.9
2023-02-08T01:44:36.323Z,449.9
2023-02-08T01:45:38.947Z,449.9
2023-02-08T01:46:41.193Z,449.9
2023-02-08T01:47:43.697Z,450.4
2023-02-08T01:48:46.188Z,449.9
2023-02-08T01:49:48.420Z,449.6
2023-02-08T01:50:50.922Z,449.8
2023-02-08T01:51:53.127Z,449.6
2023-02-08T01:52:55.612Z,449.7
2023-02-08T01:53:57.850Z,449.6
2023-02-08T01:55:00.343Z,449.8
2023-02-08T01:56:02.882Z,450
2023-02-08T01:57:05.462Z,450
2023-02-08T01:58:07.947Z,450.2
2023-02-08T01:59:10.456Z,450.1
2023-02-08T02:00:12.705Z,450.2
2023-02-08T02:01:15.556Z,450.5
2023-02-08T02:02:18.096Z,450.2
2023-02-08T02:03:20.613Z,450.4
2023-02-08T02:04:23.113Z,450.5
2023-02-08T02:05:25.615Z,450.5
2023-02-08T02:06:28.130Z,450.3
2023-02-08T02:07:30.378Z,450.4
2023-02-08T02:08:32.630Z,450.3
2023-02-08T02:09:35.148Z,450
2023-02-08T02:10:37.380Z,450.2
2023-02-08T02:11:39.954Z,450.3
2023-02-08T02:12:41.958Z,450.2
2023-02-08T02:13:44.452Z,450.3
2023-02-08T02:14:46.943Z,450.6
2023-02-08T02:15:49.432Z,450.5
2023-02-08T02:16:52.074Z,450.1
2023-02-08T02:17:54.301Z,450.8
2023-02-08T02:18:56.817Z,451
2023-02-08T02:19:59.313Z,450.9
2023-02-08T02:21:01.570Z,450.9
2023-02-08T02:22:03.804Z,450.5
2023-02-08T02:23:06.031Z,451.1
2023-02-08T02:24:08.465Z,450.6
2023-02-08T02:25:11.004Z,450.9
2023-02-08T02:26:13.493Z,450.8
2023-02-08T02:27:15.745Z,450.5
2023-02-08T02:28:18.894Z,450.3
2023-02-08T02:29:21.432Z,450.5
2023-02-08T02:30:23.982Z,450.8
2023-02-08T02:31:26.817Z,451
2023-02-08T02:32:29.365Z,451
2023-02-08T02:33:31.303Z,451.1
2023-02-08T02:34:33.828Z,451
2023-02-08T02:35:36.327Z,451
2023-02-08T02:36:38.561Z,451.5
2023-02-08T02:37:41.066Z,451.4
2023-02-08T02:38:43.372Z,451.5
2023-02-08T02:39:45.870Z,451.2
2023-02-08T02:40:47.835Z,451.4
2023-02-08T02:41:50.043Z,450.9
2023-02-08T02:42:52.046Z,451
2023-02-08T02:43:54.604Z,450.5
2023-02-08T02:44:57.094Z,451.1
2023-02-08T02:45:59.808Z,450.9
2023-02-08T02:47:02.367Z,450.6
2023-02-08T02:48:04.624Z,451
2023-02-08T02:49:07.160Z,450.7
2023-02-08T02:50:09.403Z,450.6
2023-02-08T02:51:11.981Z,450.7
2023-02-08T02:52:14.501Z,450.1
2023-02-08T02:53:16.996Z,450.5
2023-02-08T02:54:19.237Z,450.9
2023-02-08T02:55:21.739Z,450.9
2023-02-08T02:56:24.246Z,451
2023-02-08T02:57:26.460Z,451.2
2023-02-08T02:58:29.018Z,450.6
2023-02-08T02:59:31.560Z,450.8
2023-02-08T03:00:34.048Z,450.9
2023-02-08T03:01:36.565Z,450.3
2023-02-08T03:02:39.091Z,450.6
2023-02-08T03:03:41.627Z,450.3
2023-02-08T03:04:44.231Z,450.3
2023-02-08T03:05:46.747Z,450.3
2023-02-08T03:06:49.232Z,450.6
2023-02-08T03:07:51.698Z,450.3
2023-02-08T03:08:54.194Z,450.2
2023-02-08T03:09:56.112Z,450.4
2023-02-08T03:10:58.639Z,450
2023-02-08T03:12:01.142Z,450.4
2023-02-08T03:13:03.382Z,450.2
2023-02-08T03:14:05.964Z,450.3
2023-02-08T03:15:08.565Z,450.5
2023-02-08T03:16:10.951Z,450.5
2023-02-08T03:17:13.172Z,450.7
2023-02-08T03:18:15.394Z,450.9
2023-02-08T03:19:17.925Z,450.8
2023-02-08T03:20:20.440Z,450.8
2023-02-08T03:21:22.960Z,450.8
2023-02-08T03:22:25.497Z,450.7
2023-02-08T03:23:27.729Z,450.7
2023-02-08T03:24:30.257Z,450.5
2023-02-08T03:25:32.485Z,450.6
2023-02-08T03:26:34.715Z,451.2
2023-02-08T03:27:37.217Z,451.1
2023-02-08T03:28:39.172Z,451.4
2023-02-08T03:29:41.712Z,451.1
2023-02-08T03:30:45.949Z,451.4
2023-02-08T03:31:48.997Z,451.2
2023-02-08T03:32:51.222Z,451.5
2023-02-08T03:33:53.723Z,451.2
2023-02-08T03:34:56.248Z,451.6
2023-02-08T03:35:58.818Z,451.2
2023-02-08T03:37:00.843Z,451.5
2023-02-08T03:38:03.397Z,452
2023-02-08T03:39:05.905Z,452.1
2023-02-08T03:40:08.170Z,452.3
2023-02-08T03:41:10.387Z,452.2
2023-02-08T03:42:12.917Z,452.3
2023-02-08T03:43:15.168Z,452.1
2023-02-08T03:44:17.103Z,452
2023-02-08T03:45:19.672Z,452.4
2023-02-08T03:46:22.703Z,452.4
2023-02-08T03:47:25.210Z,451.9
2023-02-08T03:48:27.703Z,451.9
2023-02-08T03:49:30.217Z,451.9
2023-02-08T03:50:32.729Z,452
2023-02-08T03:51:35.232Z,451.6
2023-02-08T03:52:37.615Z,452
2023-02-08T03:53:40.155Z,451.9
2023-02-08T03:54:42.653Z,452.1
2023-02-08T03:55:45.166Z,452.2
2023-02-08T03:56:47.128Z,452.2
2023-02-08T03:57:49.697Z,452.4
2023-02-08T03:58:51.914Z,452.1
2023-02-08T03:59:54.363Z,452.2
2023-02-08T04:00:57.024Z,452.3
2023-02-08T04:01:59.613Z,452.5
2023-02-08T04:03:02.108Z,452.3
2023-02-08T04:04:04.339Z,452.5
2023-02-08T04:05:06.588Z,452.5
2023-02-08T04:06:08.799Z,452.3
2023-02-08T04:07:11.308Z,452.5
2023-02-08T04:08:13.835Z,452.4
2023-02-08T04:09:16.363Z,452.5
2023-02-08T04:10:18.609Z,453
2023-02-08T04:11:20.587Z,452.9
2023-02-08T04:12:23.080Z,453.2
2023-02-08T04:13:25.337Z,453
2023-02-08T04:14:27.587Z,452.9
2023-02-08T04:15:30.248Z,453.1
2023-02-08T04:16:32.645Z,453.5
2023-02-08T04:17:35.185Z,453.1
2023-02-08T04:18:37.149Z,453.1
2023-02-08T04:19:39.373Z,453.5
2023-02-08T04:20:43.292Z,453.4
2023-02-08T04:21:45.506Z,453.6
2023-02-08T04:22:47.739Z,453.6
2023-02-08T04:23:50.290Z,453.6
2023-02-08T04:24:52.235Z,454
2023-02-08T04:25:54.729Z,453.7
2023-02-08T04:26:57.234Z,454
2023-02-08T04:27:59.705Z,453.8
2023-02-08T04:29:02.030Z,453.8
2023-02-08T04:30:03.988Z,454
2023-02-08T04:31:06.910Z,453.9
2023-02-08T04:32:09.231Z,454.2
2023-02-08T04:33:11.512Z,454.1
2023-02-08T04:34:14.025Z,453.9
2023-02-08T04:35:16.521Z,453.9
2023-02-08T04:36:18.757Z,454.4
2023-02-08T04:37:21.662Z,454.2
2023-02-08T04:38:24.282Z,454.1
2023-02-08T04:39:26.895Z,454.3
2023-02-08T04:40:30.424Z,454.3
2023-02-08T04:41:32.759Z,453.7
2023-02-08T04:42:35.046Z,454.5
2023-02-08T04:43:37.615Z,454.6
2023-02-08T04:44:40.144Z,454.2
2023-02-08T04:45:42.688Z,454.5
2023-02-08T04:46:45.475Z,454.6
2023-02-08T04:47:48.072Z,454.5
2023-02-08T04:48:50.680Z,454.5
2023-02-08T04:49:53.196Z,454.6
2023-02-08T04:50:55.420Z,454.8
2023-02-08T04:51:57.663Z,454.6
2023-02-08T04:52:59.897Z,454.8
2023-02-08T04:54:02.156Z,454.6
2023-02-08T04:55:04.682Z,455.4
2023-02-08T04:56:07.222Z,455.2
2023-02-08T04:57:09.726Z,454.8
2023-02-08T04:58:11.956Z,455
2023-02-08T04:59:14.458Z,454.9
2023-02-08T05:00:16.732Z,455.3
2023-02-08T05:01:19.257Z,455.2
2023-02-08T05:02:21.774Z,455.7
2023-02-08T05:03:24.391Z,455.6
2023-02-08T05:04:26.939Z,455.7
2023-02-08T05:05:29.173Z,455.5
2023-02-08T05:06:31.415Z,455.9
2023-02-08T05:07:33.913Z,455.9
2023-02-08T05:08:36.172Z,455.6
2023-02-08T05:09:38.671Z,456.1
2023-02-08T05:10:42.891Z,455.6
2023-02-08T05:11:45.124Z,455.9
2023-02-08T05:12:47.724Z,455.9
2023-02-08T05:13:50.231Z,455.7
2023-02-08T05:14:52.749Z,455.9
2023-02-08T05:15:55.220Z,456.1
2023-02-08T05:16:57.783Z,456.1
2023-02-08T05:18:00.336Z,455.9
2023-02-08T05:19:02.325Z,456
2023-02-08T05:20:04.403Z,455.8
2023-02-08T05:21:06.878Z,455.7
2023-02-08T05:22:09.105Z,456.1
2023-02-08T05:23:11.340Z,455.9
2023-02-08T05:24:13.999Z,456.1
2023-02-08T05:25:16.523Z,456.3
2023-02-08T05:26:19.102Z,456
2023-02-08T05:27:21.624Z,455.8
2023-02-08T05:28:24.545Z,456.1
2023-02-08T05:29:27.082Z,455.8
2023-02-08T05:30:29.290Z,455.8
2023-02-08T05:31:32.672Z,455.9
2023-02-08T05:32:34.928Z,456.2
2023-02-08T05:33:37.419Z,456.3
2023-02-08T05:34:39.676Z,456
2023-02-08T05:35:42.379Z,455.9
2023-02-08T05:36:44.715Z,456
2023-02-08T05:37:46.974Z,456.2
2023-02-08T05:38:49.487Z,455.9
2023-02-08T05:39:51.989Z,455.6
2023-02-08T05:40:54.230Z,455.7
2023-02-08T05:41:56.764Z,455.9
2023-02-08T05:42:59.260Z,455.5
2023-02-08T05:44:01.783Z,455.4
2023-02-08T05:45:04.303Z,456.1
2023-02-08T05:46:06.849Z,455.4
2023-02-08T05:47:09.181Z,455.3
2023-02-08T05:48:11.292Z,455.5
2023-02-08T05:49:13.235Z,455.6
2023-02-08T05:50:15.513Z,455.6
2023-02-08T05:51:18.167Z,455.2
2023-02-08T05:52:20.763Z,455.8
2023-02-08T05:53:23.037Z,455.6
2023-02-08T05:54:25.280Z,455.8
2023-02-08T05:55:27.784Z,455.4
2023-02-08T05:56:30.013Z,455.4
2023-02-08T05:58:39.448Z,455.3
2023-02-08T05:59:41.958Z,455.2
2023-02-08T06:00:44.882Z,454.9
2023-02-08T06:01:47.284Z,454.7
2023-02-08T06:02:50.090Z,454.6
2023-02-08T06:03:52.748Z,454.7
2023-02-08T06:04:55.262Z,454.8
2023-02-08T06:05:57.519Z,455.2
2023-02-08T06:06:59.849Z,455.3
2023-02-08T06:08:02.372Z,455.1
2023-02-08T06:09:04.905Z,454.8
2023-02-08T06:10:07.443Z,455.1
2023-02-08T06:11:09.948Z,455.4
2023-02-08T06:12:12.496Z,455.1
2023-02-08T06:13:15.079Z,454.9
2023-02-08T06:14:17.585Z,455.3
2023-02-08T06:15:19.808Z,455.8
2023-02-08T06:16:22.091Z,455.3
2023-02-08T06:17:24.608Z,455.3
2023-02-08T06:18:27.111Z,455.4
2023-02-08T06:19:29.612Z,456
2023-02-08T06:20:31.850Z,455.5
2023-02-08T06:21:33.839Z,456
2023-02-08T06:22:36.434Z,455.8
2023-02-08T06:23:38.686Z,456.2
2023-02-08T06:24:40.928Z,455.9
2023-02-08T06:25:43.183Z,456.3
2023-02-08T06:26:45.693Z,456
2023-02-08T06:27:48.038Z,456.2
2023-02-08T06:28:50.322Z,455.8
2023-02-08T06:29:52.553Z,455.9
2023-02-08T06:30:54.524Z,455.7
2023-02-08T06:31:57.092Z,455.7
2023-02-08T06:32:59.683Z,455.8
2023-02-08T06:34:02.343Z,455.7
2023-02-08T06:35:04.628Z,456
2023-02-08T06:36:06.849Z,455.6
2023-02-08T06:37:09.390Z,455.2
2023-02-08T06:38:11.680Z,455.5
2023-02-08T06:39:13.952Z,455.1
2023-02-08T06:40:16.206Z,455.5
2023-02-08T06:41:18.690Z,454.9
2023-02-08T06:42:20.633Z,455.1
2023-02-08T06:43:23.133Z,455.2
2023-02-08T06:44:26.038Z,454.9
2023-02-08T06:45:28.712Z,454.7
2023-02-08T06:46:30.690Z,454.7
2023-02-08T06:47:33.212Z,454.2
2023-02-08T06:48:35.416Z,454.5
2023-02-08T06:49:37.658Z,454.3
2023-02-08T06:50:42.011Z,454.3
2023-02-08T06:51:44.176Z,454.3
2023-02-08T06:52:46.519Z,454.1
2023-02-08T06:53:49.071Z,453.8
2023-02-08T06:54:51.574Z,454.1
2023-02-08T06:55:54.084Z,453.7
2023-02-08T06:56:56.737Z,453.6
2023-02-08T06:57:58.989Z,453.9
2023-02-08T06:59:01.249Z,453.7
2023-02-08T07:00:03.639Z,454.1
2023-02-08T07:01:05.836Z,453.8
2023-02-08T07:02:08.311Z,453.5
2023-02-08T07:03:10.572Z,453.4
2023-02-08T07:04:13.093Z,453.5
2023-02-08T07:05:15.299Z,453.1
2023-02-08T07:06:16.995Z,453.3
2023-02-08T07:07:19.215Z,453
2023-02-08T07:08:21.750Z,452.8
2023-02-08T07:09:24.019Z,453
2023-02-08T07:10:26.492Z,453.4
2023-02-08T07:11:28.739Z,453.5
2023-02-08T07:12:31.243Z,452.8
2023-02-08T07:13:33.756Z,452.9
2023-02-08T07:14:35.976Z,453
2023-02-08T07:15:38.236Z,452.8
2023-02-08T07:16:41.032Z,453
2023-02-08T07:17:43.304Z,452.6
2023-02-08T07:18:45.263Z,453.2
2023-02-08T07:19:47.756Z,453
2023-02-08T07:20:50.000Z,453.3
2023-02-08T07:21:52.250Z,452.9
2023-02-08T07:22:54.483Z,452.7
2023-02-08T07:23:57.046Z,453
2023-02-08T07:24:58.757Z,452.5
2023-02-08T07:26:01.023Z,452.6
2023-02-08T07:27:03.529Z,452.4
2023-02-08T07:28:06.146Z,452.2
2023-02-08T07:29:08.698Z,452.6
2023-02-08T07:30:10.981Z,452.7
2023-02-08T07:31:13.634Z,452.4
2023-02-08T07:32:16.033Z,452.9
2023-02-08T07:33:18.532Z,452.7
2023-02-08T07:34:21.054Z,452.7
2023-02-08T07:35:23.277Z,452.7
2023-02-08T07:36:25.780Z,452.4
2023-02-08T07:37:27.732Z,452.8
2023-02-08T07:38:29.987Z,452.8
2023-02-08T07:39:32.541Z,452.5
2023-02-08T07:40:34.804Z,452.7
2023-02-08T07:41:37.042Z,452.9
2023-02-08T07:42:39.255Z,453
2023-02-08T07:43:41.212Z,453.1
2023-02-08T07:44:43.762Z,452.9
2023-02-08T07:45:46.374Z,452.9
2023-02-08T07:46:48.618Z,453.1
2023-02-08T07:47:50.842Z,452.6
2023-02-08T07:48:52.900Z,453.2
2023-02-08T07:49:55.136Z,452.8
2023-02-08T07:50:57.415Z,452.5
2023-02-08T07:51:59.637Z,452.5
2023-02-08T07:53:02.136Z,452.3
2023-02-08T07:54:04.659Z,452.7
2023-02-08T07:55:07.230Z,452.6
2023-02-08T07:56:09.768Z,453
2023-02-08T07:57:12.260Z,452.3
2023-02-08T07:58:14.480Z,452.9
2023-02-08T07:59:16.984Z,453
2023-02-08T08:00:19.223Z,453.5
2023-02-08T08:02:26.743Z,453.2
2023-02-08T08:03:28.398Z,453.1
2023-02-08T08:04:30.760Z,453.2
2023-02-08T08:05:33.270Z,452.5
2023-02-08T08:06:35.775Z,453.2
2023-02-08T08:07:38.362Z,453.2
2023-02-08T08:08:40.364Z,453.2
2023-02-08T08:09:42.519Z,453.1
2023-02-08T08:10:44.961Z,452.9
2023-02-08T08:11:47.233Z,452.5
2023-02-08T08:12:49.211Z,452.7
2023-02-08T08:13:51.771Z,452.6
2023-02-08T08:14:53.974Z,453
2023-02-08T08:15:55.921Z,453
2023-02-08T08:16:57.893Z,452.9
2023-02-08T08:18:00.185Z,453.4
2023-02-08T08:19:02.706Z,453.2
2023-02-08T08:20:04.966Z,453
2023-02-08T08:21:07.548Z,453
2023-02-08T08:22:09.798Z,453.1
2023-02-08T08:23:12.320Z,452.5
2023-02-08T08:24:14.270Z,452.7
2023-02-08T08:25:16.789Z,453.2
2023-02-08T08:26:19.072Z,452.9
2023-02-08T08:27:21.098Z,452.8
2023-02-08T08:28:23.958Z,453
2023-02-08T08:29:26.485Z,452.4
2023-02-08T08:30:29.190Z,452.9
2023-02-08T08:31:31.941Z,452.9
2023-02-08T08:32:34.192Z,452.7
2023-02-08T08:33:36.709Z,452.8
2023-02-08T08:34:38.934Z,452.5
2023-02-08T08:35:40.873Z,452.9
2023-02-08T08:36:43.426Z,452.8
2023-02-08T08:37:45.918Z,452.6
2023-02-08T08:38:47.896Z,452.5
2023-02-08T08:39:50.527Z,453
2023-02-08T08:40:52.756Z,452.7
2023-02-08T08:41:54.804Z,452.8
2023-02-08T08:42:57.407Z,452.6
2023-02-08T08:43:59.931Z,452.7
2023-02-08T08:45:02.481Z,452.5
2023-02-08T08:46:04.774Z,452.7
2023-02-08T08:47:07.304Z,452.6
2023-02-08T08:48:09.288Z,453.1
2023-02-08T08:49:11.538Z,452.6
2023-02-08T08:50:14.051Z,453.3
2023-02-08T08:51:16.349Z,453.1
2023-02-08T08:52:18.704Z,453.3
2023-02-08T08:53:21.278Z,453.7
2023-02-08T08:54:23.655Z,453.6
2023-02-08T08:55:25.875Z,453.4
2023-02-08T08:56:28.451Z,453.2
2023-02-08T08:57:30.765Z,453
2023-02-08T08:58:33.074Z,453
2023-02-08T08:59:35.061Z,453.7
2023-02-08T09:00:37.114Z,453.4
2023-02-08T09:01:39.596Z,453.4
2023-02-08T09:02:41.648Z,453.6
2023-02-08T09:03:44.212Z,453.2
2023-02-08T09:04:46.813Z,453.1
2023-02-08T09:05:49.310Z,453
2023-02-08T09:06:51.246Z,453.3
2023-02-08T09:07:53.747Z,453.5
2023-02-08T09:08:56.242Z,453.2
2023-02-08T09:09:58.507Z,453.1
2023-02-08T09:11:00.145Z,453.4
2023-02-08T09:12:02.090Z,453.1
2023-02-08T09:13:05.102Z,453.4
2023-02-08T09:14:07.705Z,453.8
2023-02-08T09:15:10.234Z,453.4
2023-02-08T09:16:12.764Z,453.8
2023-02-08T09:17:15.016Z,453.8
2023-02-08T09:18:16.986Z,453.7
2023-02-08T09:19:19.354Z,453.5
2023-02-08T09:20:22.067Z,453.6
2023-02-08T09:21:24.388Z,453.7
2023-02-08T09:22:26.918Z,453.2
2023-02-08T09:23:29.477Z,453.5
2023-02-08T09:24:31.435Z,453.5
2023-02-08T09:25:33.954Z,453.3
2023-02-08T09:26:36.197Z,453.2
2023-02-08T09:27:38.437Z,453.5
2023-02-08T09:28:40.726Z,453.3
2023-02-08T09:29:43.037Z,454
2023-02-08T09:30:46.890Z,452.8
2023-02-08T09:31:49.231Z,453.4
2023-02-08T09:32:51.766Z,453.5
2023-02-08T09:33:54.290Z,453.7
2023-02-08T09:34:56.809Z,453.2
2023-02-08T09:35:59.069Z,452.6
2023-02-08T09:37:01.613Z,453.3
2023-02-08T09:38:03.872Z,453.3
2023-02-08T09:39:06.079Z,453.5
2023-02-08T09:40:08.578Z,453.1
2023-02-08T09:41:10.820Z,453.5
2023-02-08T09:42:13.064Z,452.8
2023-02-08T09:43:15.592Z,452.8
2023-02-08T09:44:18.167Z,453
2023-02-08T09:45:20.750Z,452.4
2023-02-08T09:46:23.598Z,452.1
2023-02-08T09:47:25.700Z,453.1
2023-02-08T09:48:27.946Z,453.2
2023-02-08T09:49:30.185Z,453.2
2023-02-08T09:50:32.659Z,453.4
2023-02-08T09:51:35.233Z,453.2
2023-02-08T09:52:37.729Z,453.1
2023-02-08T09:53:40.239Z,452.9
2023-02-08T09:54:42.503Z,452.6
2023-02-08T09:55:45.020Z,452.5
2023-02-08T09:56:47.531Z,452.2
2023-02-08T09:57:49.776Z,452.5
2023-02-08T09:58:52.272Z,452.4
2023-02-08T09:59:54.942Z,452.6
2023-02-08T10:00:57.790Z,452.4
2023-02-08T10:02:00.329Z,452.2
2023-02-08T10:03:02.899Z,451.9
2023-02-08T10:04:05.109Z,452.1
2023-02-08T10:05:07.326Z,452.3
2023-02-08T10:06:09.847Z,451.4
2023-02-08T10:07:12.435Z,451.2
2023-02-08T10:08:15.004Z,452.6
2023-02-08T10:09:17.045Z,452.8
2023-02-08T10:10:19.730Z,452.7
2023-02-08T10:11:22.117Z,452.7
2023-02-08T10:12:24.675Z,452.8
2023-02-08T10:14:32.189Z,452.4
2023-02-08T10:15:34.753Z,453.1
2023-02-08T10:16:37.428Z,452.8
2023-02-08T10:17:39.671Z,452.7
2023-02-08T10:18:42.155Z,453
2023-02-08T10:19:44.404Z,453.1
2023-02-08T10:20:47.404Z,452.9
2023-02-08T10:21:49.893Z,452.7
2023-02-08T10:22:52.443Z,453
2023-02-08T10:23:54.119Z,453
2023-02-08T10:24:56.383Z,453.6
2023-02-08T10:25:58.963Z,453.3
2023-02-08T10:27:01.299Z,453
2023-02-08T10:28:04.279Z,453.3
2023-02-08T10:29:06.392Z,453.8
2023-02-08T10:30:08.664Z,454.1
2023-02-08T10:31:12.312Z,453.7
2023-02-08T10:32:14.901Z,454.2
2023-02-08T10:33:17.443Z,454.3
2023-02-08T10:34:19.979Z,454.1
2023-02-08T10:35:22.505Z,454
2023-02-08T10:36:25.029Z,454.4
2023-02-08T10:37:27.284Z,454
2023-02-08T10:40:39.971Z,454.5
2023-02-08T10:41:42.999Z,454.7
2023-02-08T10:42:45.701Z,455.2
2023-02-08T10:43:48.236Z,455.1
2023-02-08T10:44:50.730Z,455.3
2023-02-08T10:45:53.630Z,454.9
2023-02-08T10:46:56.206Z,455.3
2023-02-08T10:47:58.795Z,455.8
2023-02-08T10:49:01.310Z,455.6
2023-02-08T10:50:03.028Z,455.9
2023-02-08T10:51:05.308Z,455.8
2023-02-08T10:52:08.051Z,456.3
2023-02-08T10:53:10.583Z,455.9
2023-02-08T10:54:13.181Z,456
2023-02-08T10:55:15.742Z,455.9
2023-02-08T10:56:18.095Z,456.4
2023-02-08T10:57:20.652Z,456.5
2023-02-08T10:58:22.913Z,456.8
2023-02-08T10:59:25.170Z,457.2
2023-02-08T11:00:27.706Z,456.9
2023-02-08T11:01:30.245Z,456.8
2023-02-08T11:02:32.871Z,456.5
2023-02-08T11:03:35.446Z,456.5
2023-02-08T11:04:37.392Z,457.2
2023-02-08T11:05:39.358Z,457.5
2023-02-08T11:06:41.581Z,457.6
2023-02-08T11:07:44.112Z,457.3
2023-02-08T11:08:46.589Z,457.7
2023-02-08T11:09:48.800Z,457.3
2023-02-08T11:10:51.010Z,457.7
2023-02-08T11:11:53.332Z,457.7
2023-02-08T11:12:55.586Z,458.2
2023-02-08T11:13:58.099Z,458.2
2023-02-08T11:15:00.361Z,458.3
2023-02-08T11:16:02.882Z,458.2
2023-02-08T11:17:05.122Z,458.1
2023-02-08T11:18:07.501Z,458.2
2023-02-08T11:19:09.803Z,458.3
2023-02-08T11:20:11.738Z,458.2
2023-02-08T11:21:13.966Z,458
2023-02-08T11:22:16.210Z,458.5
2023-02-08T11:23:18.141Z,458
2023-02-08T11:24:20.370Z,457.9
2023-02-08T11:25:22.879Z,458.2
2023-02-08T11:26:25.407Z,457.9
2023-02-08T11:27:27.962Z,458.4
2023-02-08T11:28:29.719Z,458.2
2023-02-08T11:29:31.977Z,458.7
2023-02-08T11:30:34.642Z,458
2023-02-08T11:31:37.464Z,458.1
2023-02-08T11:32:39.690Z,458.3
2023-02-08T11:33:41.960Z,458.5
2023-02-08T11:34:44.279Z,458.3
2023-02-08T11:35:46.924Z,458.7
2023-02-08T11:36:49.450Z,458.1
2023-02-08T11:37:51.415Z,458.3
2023-02-08T11:38:53.925Z,458.6
2023-02-08T11:39:56.473Z,458.6
2023-02-08T11:40:59.048Z,459.2
2023-02-08T11:42:01.291Z,458.6
2023-02-08T11:43:03.526Z,459.1
2023-02-08T11:44:05.769Z,459.4
2023-02-08T11:45:08.284Z,459.4
2023-02-08T11:46:11.164Z,459.6
2023-02-08T11:47:13.693Z,459.4
2023-02-08T11:48:16.186Z,459.5
2023-02-08T11:49:18.741Z,459.2
2023-02-08T11:50:20.994Z,459.4
2023-02-08T11:51:23.503Z,460
2023-02-08T11:52:26.044Z,459.9
2023-02-08T11:53:28.602Z,459.8
2023-02-08T11:54:31.113Z,460.3
2023-02-08T11:55:33.629Z,460.6
2023-02-08T11:56:36.270Z,460.1
2023-02-08T11:58:45.003Z,460
2023-02-08T11:59:47.519Z,460
2023-02-08T12:00:49.802Z,459.9
2023-02-08T12:01:51.757Z,460.2
2023-02-08T12:02:53.994Z,459.5
2023-02-08T12:05:01.352Z,460.4
2023-02-08T12:06:03.898Z,460.6
2023-02-08T12:07:05.854Z,461.6
2023-02-08T12:08:07.892Z,461.7
2023-02-08T12:09:10.158Z,461.7
2023-02-08T12:10:12.651Z,462.4
2023-02-08T12:11:15.170Z,462.4
2023-02-08T12:12:17.707Z,462.9
2023-02-08T12:13:20.042Z,463.2
2023-02-08T12:14:22.286Z,462.6
2023-02-08T12:15:25.070Z,462.3
2023-02-08T12:16:27.899Z,462.7
2023-02-08T12:17:30.484Z,462.6
2023-02-08T12:18:32.859Z,462.9
2023-02-08T12:19:35.502Z,462.8
2023-02-08T12:20:38.204Z,463.2
2023-02-08T12:21:40.891Z,462.9
2023-02-08T12:22:43.125Z,463.1
2023-02-08T12:23:45.640Z,463.4
2023-02-08T12:24:48.192Z,463.4
2023-02-08T12:25:50.148Z,463.6
2023-02-08T12:26:52.693Z,464.2
2023-02-08T12:27:55.099Z,464.5
2023-02-08T12:28:57.605Z,464.7
2023-02-08T12:29:59.857Z,464.8
2023-02-08T12:31:02.918Z,464.6
2023-02-08T12:32:05.477Z,465
2023-02-08T12:33:08.102Z,465.1
2023-02-08T12:34:10.672Z,465.3
2023-02-08T12:35:12.956Z,465.2
2023-02-08T12:36:15.875Z,465.2
2023-02-08T12:37:18.243Z,465.6
2023-02-08T12:38:20.504Z,465.7
2023-02-08T12:40:28.003Z,465.2
2023-02-08T12:41:30.546Z,465.3
2023-02-08T12:42:32.763Z,465.9
2023-02-08T12:43:35.176Z,466.2
2023-02-08T12:44:37.424Z,465.9
2023-02-08T12:45:39.953Z,465.8
2023-02-08T12:46:42.495Z,466
2023-02-08T12:48:49.964Z,466.2
2023-02-08T12:49:52.458Z,466.4
2023-02-08T12:50:54.966Z,466.7
2023-02-08T12:51:57.544Z,466.8
2023-02-08T12:53:00.107Z,467.2
2023-02-08T12:54:02.706Z,467.1
2023-02-08T12:55:05.268Z,466.8
2023-02-08T12:56:08.001Z,467.4
2023-02-08T12:57:09.873Z,467.5
2023-02-08T12:58:12.149Z,467.6
2023-02-08T12:59:16.028Z,468.1
2023-02-08T13:00:18.545Z,467.9
2023-02-08T13:01:21.286Z,467.8
2023-02-08T13:02:24.019Z,467.5
2023-02-08T13:03:26.534Z,468.1
2023-02-08T13:04:29.041Z,468.3
2023-02-08T13:05:31.287Z,468.5
2023-02-08T13:06:33.956Z,468.4
2023-02-08T13:07:36.550Z,468.4
2023-02-08T13:08:39.086Z,468.8
2023-02-08T13:09:41.601Z,469.5
2023-02-08T13:10:44.160Z,469.3
2023-02-08T13:11:46.663Z,469.5
2023-02-08T13:12:49.159Z,469.7
2023-02-08T13:13:51.378Z,469.4
2023-02-08T13:14:53.924Z,470.1
2023-02-08T13:15:56.728Z,469.7
2023-02-08T13:16:58.990Z,469.8
2023-02-08T13:18:01.215Z,469.5
2023-02-08T13:19:03.445Z,469.3
2023-02-08T13:20:05.979Z,469.5
2023-02-08T13:21:08.479Z,469.4
2023-02-08T13:22:10.695Z,469.8
2023-02-08T13:23:12.979Z,469.6
2023-02-08T13:24:18.710Z,469.9
2023-02-08T13:25:21.021Z,469.8
2023-02-08T13:26:23.000Z,469.8
2023-02-08T13:27:25.859Z,470
2023-02-08T13:28:29.573Z,470.4
2023-02-08T13:29:32.978Z,470.2
2023-02-08T13:30:35.434Z,470.1
2023-02-08T13:31:38.398Z,470.2
2023-02-08T13:34:51.121Z,470
2023-02-08T13:35:53.662Z,470.2
2023-02-08T13:36:55.962Z,469.8
2023-02-08T13:37:57.907Z,470.5
2023-02-08T13:39:00.184Z,470.8
2023-02-08T13:40:02.551Z,470.7
2023-02-08T13:41:05.064Z,471.1